sensor_id;sensor_type;location;lat;lon;timestamp;temperature;humidity
53711;DHT22;39605;52.704;6.752;2022-09-09T00:19:01;14.20;99.90
53711;DHT22;39605;52.704;6.752;2022-09-09T00:21:33;14.20;99.90
53711;DHT22;39605;52.704;6.752;2022-09-09T00:24:01;14.20;99.90
53711;DHT22;39605;52.704;6.752;2022-09-09T00:26:40;14.10;99.90
53711;DHT22;39605;52.704;6.752;2022-09-09T00:31:34;14.20;99.90
53711;DHT22;39605;52.704;6.752;2022-09-09T00:34:12;14.20;99.90
53711;DHT22;39605;52.704;6.752;2022-09-09T00:36:39;14.20;99.90
53711;DHT22;39605;52.704;6.752;2022-09-09T00:39:10;14.20;99.90
53711;DHT22;39605;52.704;6.752;2022-09-09T00:44:37;14.20;99.90
53711;DHT22;39605;52.704;6.752;2022-09-09T00:47:21;14.20;99.90
53711;DHT22;39605;52.704;6.752;2022-09-09T00:50:31;14.20;99.90
53711;DHT22;39605;52.704;6.752;2022-09-09T00:56:12;14.30;99.90
53711;DHT22;39605;52.704;6.752;2022-09-09T00:58:43;14.40;99.90
53711;DHT22;39605;52.704;6.752;2022-09-09T01:01:11;14.40;99.90
53711;DHT22;39605;52.704;6.752;2022-09-09T01:20:14;14.50;99.90
53711;DHT22;39605;52.704;6.752;2022-09-09T01:23:09;14.60;99.90
53711;DHT22;39605;52.704;6.752;2022-09-09T01:28:24;14.60;99.90
53711;DHT22;39605;52.704;6.752;2022-09-09T01:30:50;14.60;99.90
53711;DHT22;39605;52.704;6.752;2022-09-09T01:33:17;14.70;99.90
53711;DHT22;39605;52.704;6.752;2022-09-09T01:38:17;14.70;99.90
53711;DHT22;39605;52.704;6.752;2022-09-09T01:40:43;14.70;99.90
53711;DHT22;39605;52.704;6.752;2022-09-09T01:43:09;14.60;99.90
53711;DHT22;39605;52.704;6.752;2022-09-09T01:45:35;14.70;99.90
53711;DHT22;39605;52.704;6.752;2022-09-09T01:48:01;14.70;99.90
53711;DHT22;39605;52.704;6.752;2022-09-09T01:50:28;14.70;99.90
53711;DHT22;39605;52.704;6.752;2022-09-09T01:52:57;14.70;99.90
53711;DHT22;39605;52.704;6.752;2022-09-09T01:55:38;14.70;99.90
53711;DHT22;39605;52.704;6.752;2022-09-09T01:58:26;14.70;99.90
53711;DHT22;39605;52.704;6.752;2022-09-09T02:01:24;14.60;99.90
53711;DHT22;39605;52.704;6.752;2022-09-09T02:03:57;14.70;99.90
53711;DHT22;39605;52.704;6.752;2022-09-09T02:06:34;14.60;99.90
53711;DHT22;39605;52.704;6.752;2022-09-09T02:09:03;14.60;99.90
53711;DHT22;39605;52.704;6.752;2022-09-09T02:11:30;14.60;99.90
53711;DHT22;39605;52.704;6.752;2022-09-09T02:14:06;14.60;99.90
53711;DHT22;39605;52.704;6.752;2022-09-09T02:16:55;14.60;99.90
53711;DHT22;39605;52.704;6.752;2022-09-09T02:19:29;14.60;99.90
53711;DHT22;39605;52.704;6.752;2022-09-09T02:21:57;14.60;99.90
53711;DHT22;39605;52.704;6.752;2022-09-09T02:24:26;14.60;99.90
53711;DHT22;39605;52.704;6.752;2022-09-09T02:26:53;14.60;99.90
53711;DHT22;39605;52.704;6.752;2022-09-09T02:29:47;14.60;99.90
53711;DHT22;39605;52.704;6.752;2022-09-09T02:32:15;14.60;99.90
53711;DHT22;39605;52.704;6.752;2022-09-09T02:34:55;14.60;99.90
53711;DHT22;39605;52.704;6.752;2022-09-09T02:37:26;14.60;99.90
53711;DHT22;39605;52.704;6.752;2022-09-09T02:39:54;14.60;99.90
53711;DHT22;39605;52.704;6.752;2022-09-09T02:42:20;14.60;99.90
53711;DHT22;39605;52.704;6.752;2022-09-09T02:44:46;14.60;99.90
53711;DHT22;39605;52.704;6.752;2022-09-09T02:47:33;14.50;99.90
53711;DHT22;39605;52.704;6.752;2022-09-09T02:53:06;14.50;99.90
53711;DHT22;39605;52.704;6.752;2022-09-09T02:58:20;14.50;99.90
53711;DHT22;39605;52.704;6.752;2022-09-09T03:00:48;14.50;99.90
53711;DHT22;39605;52.704;6.752;2022-09-09T03:03:14;14.50;99.90
53711;DHT22;39605;52.704;6.752;2022-09-09T03:05:42;14.40;99.90
53711;DHT22;39605;52.704;6.752;2022-09-09T03:08:08;14.50;99.90
53711;DHT22;39605;52.704;6.752;2022-09-09T03:10:35;14.40;99.90
53711;DHT22;39605;52.704;6.752;2022-09-09T03:13:02;14.50;99.90
53711;DHT22;39605;52.704;6.752;2022-09-09T03:15:30;14.40;99.90
53711;DHT22;39605;52.704;6.752;2022-09-09T03:17:57;14.50;99.90
53711;DHT22;39605;52.704;6.752;2022-09-09T03:20:27;14.40;99.90
53711;DHT22;39605;52.704;6.752;2022-09-09T03:22:53;14.40;99.90
53711;DHT22;39605;52.704;6.752;2022-09-09T03:25:20;14.40;99.90
53711;DHT22;39605;52.704;6.752;2022-09-09T03:27:46;14.40;99.90
53711;DHT22;39605;52.704;6.752;2022-09-09T03:30:12;14.40;99.90
53711;DHT22;39605;52.704;6.752;2022-09-09T03:32:37;14.40;99.90
53711;DHT22;39605;52.704;6.752;2022-09-09T03:35:03;14.40;99.90
53711;DHT22;39605;52.704;6.752;2022-09-09T03:37:29;14.40;99.90
53711;DHT22;39605;52.704;6.752;2022-09-09T03:39:55;14.50;99.90
53711;DHT22;39605;52.704;6.752;2022-09-09T03:42:21;14.40;99.90
53711;DHT22;39605;52.704;6.752;2022-09-09T03:44:47;14.40;99.90
53711;DHT22;39605;52.704;6.752;2022-09-09T03:47:17;14.40;99.90
53711;DHT22;39605;52.704;6.752;2022-09-09T03:49:44;14.40;99.90
53711;DHT22;39605;52.704;6.752;2022-09-09T03:52:09;14.40;99.90
53711;DHT22;39605;52.704;6.752;2022-09-09T03:54:35;14.40;99.90
53711;DHT22;39605;52.704;6.752;2022-09-09T03:57:01;14.40;99.90
53711;DHT22;39605;52.704;6.752;2022-09-09T03:59:27;14.40;99.90
53711;DHT22;39605;52.704;6.752;2022-09-09T04:01:53;14.40;99.90
53711;DHT22;39605;52.704;6.752;2022-09-09T04:04:20;14.40;99.90
53711;DHT22;39605;52.704;6.752;2022-09-09T04:06:46;14.40;99.90
53711;DHT22;39605;52.704;6.752;2022-09-09T04:09:14;14.40;99.90
53711;DHT22;39605;52.704;6.752;2022-09-09T04:11:39;14.40;99.90
53711;DHT22;39605;52.704;6.752;2022-09-09T04:14:05;14.40;99.90
53711;DHT22;39605;52.704;6.752;2022-09-09T04:16:32;14.40;99.90
53711;DHT22;39605;52.704;6.752;2022-09-09T04:18:58;14.40;99.90
53711;DHT22;39605;52.704;6.752;2022-09-09T04:21:25;14.40;99.90
53711;DHT22;39605;52.704;6.752;2022-09-09T04:23:51;14.50;99.90
53711;DHT22;39605;52.704;6.752;2022-09-09T04:26:17;14.30;99.90
53711;DHT22;39605;52.704;6.752;2022-09-09T04:28:43;14.30;99.90
53711;DHT22;39605;52.704;6.752;2022-09-09T04:31:16;14.30;99.90
53711;DHT22;39605;52.704;6.752;2022-09-09T04:33:43;14.30;99.90
53711;DHT22;39605;52.704;6.752;2022-09-09T04:36:08;14.20;99.90
53711;DHT22;39605;52.704;6.752;2022-09-09T04:38:34;14.30;99.90
53711;DHT22;39605;52.704;6.752;2022-09-09T04:41:00;14.30;99.90
53711;DHT22;39605;52.704;6.752;2022-09-09T04:43:26;14.20;99.90
53711;DHT22;39605;52.704;6.752;2022-09-09T04:45:53;14.20;99.90
53711;DHT22;39605;52.704;6.752;2022-09-09T04:48:19;14.20;99.90
53711;DHT22;39605;52.704;6.752;2022-09-09T04:51:00;14.20;99.90
53711;DHT22;39605;52.704;6.752;2022-09-09T04:53:26;14.10;99.90
53711;DHT22;39605;52.704;6.752;2022-09-09T04:56:18;14.10;99.90
53711;DHT22;39605;52.704;6.752;2022-09-09T04:58:44;14.20;99.90
53711;DHT22;39605;52.704;6.752;2022-09-09T05:03:36;14.10;99.90
53711;DHT22;39605;52.704;6.752;2022-09-09T05:06:11;14.10;99.90
53711;DHT22;39605;52.704;6.752;2022-09-09T05:08:38;14.10;99.90
53711;DHT22;39605;52.704;6.752;2022-09-09T05:11:22;14.10;99.90
53711;DHT22;39605;52.704;6.752;2022-09-09T05:13:49;14.00;99.90
53711;DHT22;39605;52.704;6.752;2022-09-09T05:16:16;14.10;99.90
53711;DHT22;39605;52.704;6.752;2022-09-09T05:18:43;14.00;99.90
53711;DHT22;39605;52.704;6.752;2022-09-09T05:21:10;14.10;99.90
53711;DHT22;39605;52.704;6.752;2022-09-09T05:23:36;14.10;99.90
53711;DHT22;39605;52.704;6.752;2022-09-09T05:26:03;14.10;99.90
53711;DHT22;39605;52.704;6.752;2022-09-09T05:28:29;14.00;99.90
53711;DHT22;39605;52.704;6.752;2022-09-09T05:31:00;14.00;99.90
53711;DHT22;39605;52.704;6.752;2022-09-09T05:33:27;14.00;99.90
53711;DHT22;39605;52.704;6.752;2022-09-09T05:36:03;14.10;99.90
53711;DHT22;39605;52.704;6.752;2022-09-09T05:38:31;14.10;99.90
53711;DHT22;39605;52.704;6.752;2022-09-09T05:40:57;14.10;99.90
53711;DHT22;39605;52.704;6.752;2022-09-09T05:43:24;14.10;99.90
53711;DHT22;39605;52.704;6.752;2022-09-09T05:45:59;14.10;99.90
53711;DHT22;39605;52.704;6.752;2022-09-09T05:48:37;14.10;99.90
53711;DHT22;39605;52.704;6.752;2022-09-09T05:51:05;14.20;99.90
53711;DHT22;39605;52.704;6.752;2022-09-09T05:53:34;14.20;99.90
53711;DHT22;39605;52.704;6.752;2022-09-09T05:56:05;14.20;99.90
53711;DHT22;39605;52.704;6.752;2022-09-09T05:58:32;14.30;99.90
53711;DHT22;39605;52.704;6.752;2022-09-09T06:01:06;14.30;99.90
53711;DHT22;39605;52.704;6.752;2022-09-09T06:03:36;14.30;99.90
53711;DHT22;39605;52.704;6.752;2022-09-09T06:06:04;14.30;99.90
53711;DHT22;39605;52.704;6.752;2022-09-09T06:08:34;14.30;99.90
53711;DHT22;39605;52.704;6.752;2022-09-09T06:11:23;14.30;99.90
53711;DHT22;39605;52.704;6.752;2022-09-09T06:13:50;14.40;99.90
53711;DHT22;39605;52.704;6.752;2022-09-09T06:16:24;14.40;99.90
53711;DHT22;39605;52.704;6.752;2022-09-09T06:18:52;14.40;99.90
53711;DHT22;39605;52.704;6.752;2022-09-09T06:21:23;14.50;99.90
53711;DHT22;39605;52.704;6.752;2022-09-09T06:23:49;14.50;99.90
53711;DHT22;39605;52.704;6.752;2022-09-09T06:26:28;14.40;99.90
53711;DHT22;39605;52.704;6.752;2022-09-09T06:28:56;14.50;99.90
53711;DHT22;39605;52.704;6.752;2022-09-09T06:31:25;14.60;99.90
53711;DHT22;39605;52.704;6.752;2022-09-09T06:33:52;14.60;99.90
53711;DHT22;39605;52.704;6.752;2022-09-09T06:36:20;14.60;99.90
53711;DHT22;39605;52.704;6.752;2022-09-09T06:38:46;14.60;99.90
53711;DHT22;39605;52.704;6.752;2022-09-09T06:41:14;14.70;99.90
53711;DHT22;39605;52.704;6.752;2022-09-09T06:43:40;14.70;99.90
53711;DHT22;39605;52.704;6.752;2022-09-09T06:46:11;14.70;99.90
53711;DHT22;39605;52.704;6.752;2022-09-09T06:48:39;14.70;99.90
53711;DHT22;39605;52.704;6.752;2022-09-09T06:53:40;14.90;99.90
53711;DHT22;39605;52.704;6.752;2022-09-09T06:56:24;15.00;99.90
53711;DHT22;39605;52.704;6.752;2022-09-09T06:58:51;15.10;99.90
53711;DHT22;39605;52.704;6.752;2022-09-09T07:01:25;15.30;99.90
53711;DHT22;39605;52.704;6.752;2022-09-09T07:03:53;15.40;99.90
53711;DHT22;39605;52.704;6.752;2022-09-09T07:06:27;15.50;99.90
53711;DHT22;39605;52.704;6.752;2022-09-09T07:09:01;15.60;99.90
53711;DHT22;39605;52.704;6.752;2022-09-09T07:11:33;15.60;99.90
53711;DHT22;39605;52.704;6.752;2022-09-09T07:14:00;15.70;99.90
53711;DHT22;39605;52.704;6.752;2022-09-09T07:16:27;15.70;99.90
53711;DHT22;39605;52.704;6.752;2022-09-09T07:18:54;15.70;99.90
53711;DHT22;39605;52.704;6.752;2022-09-09T07:21:25;15.80;99.90
53711;DHT22;39605;52.704;6.752;2022-09-09T07:23:52;15.90;99.90
53711;DHT22;39605;52.704;6.752;2022-09-09T07:26:20;15.90;99.90
53711;DHT22;39605;52.704;6.752;2022-09-09T07:28:46;16.10;99.90
53711;DHT22;39605;52.704;6.752;2022-09-09T07:31:15;16.20;99.90
53711;DHT22;39605;52.704;6.752;2022-09-09T07:33:42;16.40;99.90
53711;DHT22;39605;52.704;6.752;2022-09-09T07:36:16;16.70;99.90
53711;DHT22;39605;52.704;6.752;2022-09-09T07:38:48;16.70;99.90
53711;DHT22;39605;52.704;6.752;2022-09-09T07:41:22;16.80;99.90
53711;DHT22;39605;52.704;6.752;2022-09-09T07:43:49;16.80;99.90
53711;DHT22;39605;52.704;6.752;2022-09-09T07:46:16;16.70;99.90
53711;DHT22;39605;52.704;6.752;2022-09-09T07:48:47;16.70;99.90
53711;DHT22;39605;52.704;6.752;2022-09-09T07:51:18;16.70;99.90
53711;DHT22;39605;52.704;6.752;2022-09-09T07:53:46;16.70;99.90
53711;DHT22;39605;52.704;6.752;2022-09-09T07:56:16;16.70;99.90
53711;DHT22;39605;52.704;6.752;2022-09-09T07:58:45;16.60;99.90
53711;DHT22;39605;52.704;6.752;2022-09-09T08:01:14;16.60;99.90
53711;DHT22;39605;52.704;6.752;2022-09-09T08:03:40;16.60;99.90
53711;DHT22;39605;52.704;6.752;2022-09-09T08:06:08;16.70;99.90
53711;DHT22;39605;52.704;6.752;2022-09-09T08:08:35;16.70;99.90
53711;DHT22;39605;52.704;6.752;2022-09-09T08:13:30;16.70;99.90
53711;DHT22;39605;52.704;6.752;2022-09-09T08:16:08;16.80;99.90
53711;DHT22;39605;52.704;6.752;2022-09-09T08:18:34;16.80;99.90
53711;DHT22;39605;52.704;6.752;2022-09-09T08:21:08;16.90;99.90
53711;DHT22;39605;52.704;6.752;2022-09-09T08:23:37;16.90;99.90
53711;DHT22;39605;52.704;6.752;2022-09-09T08:26:15;17.00;99.90
53711;DHT22;39605;52.704;6.752;2022-09-09T08:28:42;17.10;99.90
53711;DHT22;39605;52.704;6.752;2022-09-09T08:31:16;17.20;99.90
53711;DHT22;39605;52.704;6.752;2022-09-09T08:33:43;17.20;99.90
53711;DHT22;39605;52.704;6.752;2022-09-09T08:36:16;17.20;99.90
53711;DHT22;39605;52.704;6.752;2022-09-09T08:38:43;17.20;99.90
53711;DHT22;39605;52.704;6.752;2022-09-09T08:52:27;17.30;99.90
53711;DHT22;39605;52.704;6.752;2022-09-09T08:55:03;17.30;99.90
53711;DHT22;39605;52.704;6.752;2022-09-09T08:57:31;17.40;99.90
53711;DHT22;39605;52.704;6.752;2022-09-09T08:59:58;17.40;99.90
53711;DHT22;39605;52.704;6.752;2022-09-09T09:08:07;17.40;99.90
53711;DHT22;39605;52.704;6.752;2022-09-09T09:10:46;17.40;99.90
53711;DHT22;39605;52.704;6.752;2022-09-09T09:13:44;17.50;99.90
53711;DHT22;39605;52.704;6.752;2022-09-09T09:16:39;17.60;99.90
53711;DHT22;39605;52.704;6.752;2022-09-09T09:19:14;17.70;99.90
53711;DHT22;39605;52.704;6.752;2022-09-09T09:21:48;17.80;99.90
53711;DHT22;39605;52.704;6.752;2022-09-09T09:24:22;17.80;99.90
53711;DHT22;39605;52.704;6.752;2022-09-09T09:26:49;17.90;99.90
53711;DHT22;39605;52.704;6.752;2022-09-09T09:29:19;18.00;99.90
53711;DHT22;39605;52.704;6.752;2022-09-09T09:31:56;18.30;99.90
53711;DHT22;39605;52.704;6.752;2022-09-09T09:34:24;18.40;99.90
53711;DHT22;39605;52.704;6.752;2022-09-09T09:36:57;18.50;99.90
53711;DHT22;39605;52.704;6.752;2022-09-09T09:39:29;18.50;99.90
53711;DHT22;39605;52.704;6.752;2022-09-09T09:41:55;18.60;99.90
53711;DHT22;39605;52.704;6.752;2022-09-09T09:44:28;18.70;99.90
53711;DHT22;39605;52.704;6.752;2022-09-09T09:49:31;18.80;99.90
53711;DHT22;39605;52.704;6.752;2022-09-09T09:52:04;18.70;99.90
53711;DHT22;39605;52.704;6.752;2022-09-09T09:54:38;18.70;99.90
53711;DHT22;39605;52.704;6.752;2022-09-09T09:57:30;18.60;99.90
53711;DHT22;39605;52.704;6.752;2022-09-09T10:02:39;18.80;99.90
53711;DHT22;39605;52.704;6.752;2022-09-09T10:05:23;18.90;99.90
53711;DHT22;39605;52.704;6.752;2022-09-09T10:08:20;18.80;99.90
53711;DHT22;39605;52.704;6.752;2022-09-09T10:13:48;18.80;99.90
53711;DHT22;39605;52.704;6.752;2022-09-09T10:19:03;18.80;99.90
53711;DHT22;39605;52.704;6.752;2022-09-09T10:32:55;20.20;99.90
53711;DHT22;39605;52.704;6.752;2022-09-09T10:40:58;20.00;99.90
53711;DHT22;39605;52.704;6.752;2022-09-09T10:43:46;19.90;99.90
53711;DHT22;39605;52.704;6.752;2022-09-09T10:52:14;20.50;99.90
53711;DHT22;39605;52.704;6.752;2022-09-09T10:57:46;20.80;99.90
53711;DHT22;39605;52.704;6.752;2022-09-09T11:02:55;20.70;99.90
53711;DHT22;39605;52.704;6.752;2022-09-09T11:05:43;20.80;99.90
53711;DHT22;39605;52.704;6.752;2022-09-09T11:08:18;20.70;99.90
53711;DHT22;39605;52.704;6.752;2022-09-09T11:18:46;20.60;99.90
53711;DHT22;39605;52.704;6.752;2022-09-09T11:21:29;20.60;99.90
53711;DHT22;39605;52.704;6.752;2022-09-09T11:24:03;20.90;99.90
53711;DHT22;39605;52.704;6.752;2022-09-09T11:26:47;21.10;99.90
53711;DHT22;39605;52.704;6.752;2022-09-09T11:32:27;21.10;99.90
53711;DHT22;39605;52.704;6.752;2022-09-09T11:38:18;20.90;99.90
53711;DHT22;39605;52.704;6.752;2022-09-09T11:40:45;20.80;99.90
53711;DHT22;39605;52.704;6.752;2022-09-09T11:43:19;20.70;99.90
53711;DHT22;39605;52.704;6.752;2022-09-09T11:45:55;20.50;99.90
53711;DHT22;39605;52.704;6.752;2022-09-09T11:53:34;20.40;99.90
53711;DHT22;39605;52.704;6.752;2022-09-09T11:56:04;20.50;99.90
53711;DHT22;39605;52.704;6.752;2022-09-09T11:58:38;20.60;99.90
53711;DHT22;39605;52.704;6.752;2022-09-09T12:01:16;21.00;99.90
53711;DHT22;39605;52.704;6.752;2022-09-09T12:03:54;21.30;99.90
53711;DHT22;39605;52.704;6.752;2022-09-09T12:06:30;21.30;99.90
53711;DHT22;39605;52.704;6.752;2022-09-09T12:11:50;21.10;99.90
53711;DHT22;39605;52.704;6.752;2022-09-09T12:14:21;21.00;99.90
53711;DHT22;39605;52.704;6.752;2022-09-09T12:16:48;20.90;99.90
53711;DHT22;39605;52.704;6.752;2022-09-09T12:19:21;20.90;99.90
53711;DHT22;39605;52.704;6.752;2022-09-09T12:25:08;20.90;99.90
53711;DHT22;39605;52.704;6.752;2022-09-09T12:28:22;20.70;99.90
53711;DHT22;39605;52.704;6.752;2022-09-09T12:33:20;20.50;99.90
53711;DHT22;39605;52.704;6.752;2022-09-09T12:35:57;20.50;99.90
53711;DHT22;39605;52.704;6.752;2022-09-09T12:38:42;20.40;99.90
53711;DHT22;39605;52.704;6.752;2022-09-09T12:41:27;20.40;99.90
53711;DHT22;39605;52.704;6.752;2022-09-09T12:44:09;20.30;99.90
53711;DHT22;39605;52.704;6.752;2022-09-09T12:46:40;20.30;99.90
53711;DHT22;39605;52.704;6.752;2022-09-09T12:49:30;20.30;99.90
53711;DHT22;39605;52.704;6.752;2022-09-09T12:52:04;20.30;99.90
53711;DHT22;39605;52.704;6.752;2022-09-09T12:54:34;20.20;99.90
53711;DHT22;39605;52.704;6.752;2022-09-09T12:57:00;20.10;99.90
53711;DHT22;39605;52.704;6.752;2022-09-09T12:59:38;20.00;99.90
53711;DHT22;39605;52.704;6.752;2022-09-09T13:02:22;20.00;99.90
53711;DHT22;39605;52.704;6.752;2022-09-09T13:04:49;20.10;99.90
53711;DHT22;39605;52.704;6.752;2022-09-09T13:07:17;20.20;99.90
53711;DHT22;39605;52.704;6.752;2022-09-09T13:09:45;20.40;99.90
53711;DHT22;39605;52.704;6.752;2022-09-09T13:12:17;20.80;99.90
53711;DHT22;39605;52.704;6.752;2022-09-09T13:14:46;21.10;99.90
53711;DHT22;39605;52.704;6.752;2022-09-09T13:17:27;21.40;99.90
53711;DHT22;39605;52.704;6.752;2022-09-09T13:19:56;21.50;99.90
53711;DHT22;39605;52.704;6.752;2022-09-09T13:30:31;21.40;99.90
53711;DHT22;39605;52.704;6.752;2022-09-09T13:35:49;21.10;99.90
53711;DHT22;39605;52.704;6.752;2022-09-09T13:38:16;21.00;99.90
53711;DHT22;39605;52.704;6.752;2022-09-09T13:40:59;20.90;99.90
53711;DHT22;39605;52.704;6.752;2022-09-09T13:43:28;20.80;99.90
53711;DHT22;39605;52.704;6.752;2022-09-09T13:45:57;20.70;99.90
53711;DHT22;39605;52.704;6.752;2022-09-09T13:48:23;20.70;99.90
53711;DHT22;39605;52.704;6.752;2022-09-09T13:51:03;20.60;99.90
53711;DHT22;39605;52.704;6.752;2022-09-09T13:53:33;20.50;99.90
53711;DHT22;39605;52.704;6.752;2022-09-09T13:55:59;20.30;99.90
53711;DHT22;39605;52.704;6.752;2022-09-09T13:58:25;20.10;99.90
53711;DHT22;39605;52.704;6.752;2022-09-09T14:00:52;19.80;99.90
53711;DHT22;39605;52.704;6.752;2022-09-09T14:03:19;19.40;99.90
53711;DHT22;39605;52.704;6.752;2022-09-09T14:05:45;19.20;99.90
53711;DHT22;39605;52.704;6.752;2022-09-09T14:08:19;19.00;99.90
53711;DHT22;39605;52.704;6.752;2022-09-09T14:10:46;18.70;99.90
53711;DHT22;39605;52.704;6.752;2022-09-09T14:13:12;18.60;99.90
53711;DHT22;39605;52.704;6.752;2022-09-09T14:15:38;18.60;99.90
53711;DHT22;39605;52.704;6.752;2022-09-09T14:18:04;18.60;99.90
53711;DHT22;39605;52.704;6.752;2022-09-09T14:20:29;18.70;99.90
53711;DHT22;39605;52.704;6.752;2022-09-09T14:22:55;18.90;99.90
53711;DHT22;39605;52.704;6.752;2022-09-09T14:25:23;19.00;99.90
53711;DHT22;39605;52.704;6.752;2022-09-09T14:27:48;19.10;99.90
53711;DHT22;39605;52.704;6.752;2022-09-09T14:30:16;19.20;99.90
53711;DHT22;39605;52.704;6.752;2022-09-09T14:32:42;19.40;99.90
53711;DHT22;39605;52.704;6.752;2022-09-09T14:35:08;19.50;99.90
53711;DHT22;39605;52.704;6.752;2022-09-09T14:37:34;19.60;99.90
53711;DHT22;39605;52.704;6.752;2022-09-09T14:40:00;19.80;99.90
53711;DHT22;39605;52.704;6.752;2022-09-09T14:42:25;19.70;99.90
53711;DHT22;39605;52.704;6.752;2022-09-09T14:44:52;19.70;99.90
53711;DHT22;39605;52.704;6.752;2022-09-09T14:47:18;19.60;99.90
53711;DHT22;39605;52.704;6.752;2022-09-09T14:49:43;19.50;99.90
53711;DHT22;39605;52.704;6.752;2022-09-09T14:52:11;19.40;99.90
53711;DHT22;39605;52.704;6.752;2022-09-09T14:54:36;19.30;99.90
53711;DHT22;39605;52.704;6.752;2022-09-09T14:57:02;19.30;99.90
53711;DHT22;39605;52.704;6.752;2022-09-09T14:59:28;19.20;99.90
53711;DHT22;39605;52.704;6.752;2022-09-09T15:01:54;19.20;99.90
53711;DHT22;39605;52.704;6.752;2022-09-09T15:04:19;19.10;99.90
53711;DHT22;39605;52.704;6.752;2022-09-09T15:06:45;19.10;99.90
53711;DHT22;39605;52.704;6.752;2022-09-09T15:09:14;19.00;99.90
53711;DHT22;39605;52.704;6.752;2022-09-09T15:11:40;18.90;99.90
53711;DHT22;39605;52.704;6.752;2022-09-09T15:14:07;18.90;99.90
53711;DHT22;39605;52.704;6.752;2022-09-09T15:16:33;18.90;99.90
53711;DHT22;39605;52.704;6.752;2022-09-09T15:19:00;18.90;99.90
53711;DHT22;39605;52.704;6.752;2022-09-09T15:21:32;18.90;99.90
53711;DHT22;39605;52.704;6.752;2022-09-09T15:23:58;18.90;99.90
53711;DHT22;39605;52.704;6.752;2022-09-09T15:26:25;18.90;99.90
53711;DHT22;39605;52.704;6.752;2022-09-09T15:28:51;18.80;99.90
53711;DHT22;39605;52.704;6.752;2022-09-09T15:31:20;18.80;99.90
53711;DHT22;39605;52.704;6.752;2022-09-09T15:33:50;18.70;99.90
53711;DHT22;39605;52.704;6.752;2022-09-09T15:36:24;18.70;99.90
53711;DHT22;39605;52.704;6.752;2022-09-09T15:38:51;18.70;99.90
53711;DHT22;39605;52.704;6.752;2022-09-09T15:41:19;18.70;99.90
53711;DHT22;39605;52.704;6.752;2022-09-09T15:43:47;18.70;99.90
53711;DHT22;39605;52.704;6.752;2022-09-09T15:48:43;18.80;99.90
53711;DHT22;39605;52.704;6.752;2022-09-09T15:51:10;18.80;99.90
53711;DHT22;39605;52.704;6.752;2022-09-09T15:53:36;18.70;99.90
53711;DHT22;39605;52.704;6.752;2022-09-09T15:56:07;18.80;99.90
53711;DHT22;39605;52.704;6.752;2022-09-09T15:58:34;18.80;99.90
53711;DHT22;39605;52.704;6.752;2022-09-09T16:01:07;18.90;99.90
53711;DHT22;39605;52.704;6.752;2022-09-09T16:03:42;18.80;99.90
53711;DHT22;39605;52.704;6.752;2022-09-09T16:06:11;18.80;99.90
53711;DHT22;39605;52.704;6.752;2022-09-09T16:08:42;18.70;99.90
53711;DHT22;39605;52.704;6.752;2022-09-09T16:11:11;18.70;99.90
53711;DHT22;39605;52.704;6.752;2022-09-09T16:13:39;18.70;99.90
53711;DHT22;39605;52.704;6.752;2022-09-09T16:16:06;18.70;99.90
53711;DHT22;39605;52.704;6.752;2022-09-09T16:18:40;18.70;99.90
53711;DHT22;39605;52.704;6.752;2022-09-09T16:21:07;18.70;99.90
53711;DHT22;39605;52.704;6.752;2022-09-09T16:23:34;18.70;99.90
53711;DHT22;39605;52.704;6.752;2022-09-09T16:26:00;18.70;99.90
53711;DHT22;39605;52.704;6.752;2022-09-09T16:28:27;18.70;99.90
53711;DHT22;39605;52.704;6.752;2022-09-09T16:30:53;18.80;99.90
53711;DHT22;39605;52.704;6.752;2022-09-09T16:33:19;18.70;99.90
53711;DHT22;39605;52.704;6.752;2022-09-09T16:35:45;18.70;99.90
53711;DHT22;39605;52.704;6.752;2022-09-09T16:38:11;18.70;99.90
53711;DHT22;39605;52.704;6.752;2022-09-09T16:40:37;18.70;99.90
53711;DHT22;39605;52.704;6.752;2022-09-09T16:43:04;18.70;99.90
53711;DHT22;39605;52.704;6.752;2022-09-09T16:45:31;18.70;99.90
53711;DHT22;39605;52.704;6.752;2022-09-09T16:47:58;18.60;99.90
53711;DHT22;39605;52.704;6.752;2022-09-09T16:50:23;18.50;99.90
53711;DHT22;39605;52.704;6.752;2022-09-09T16:52:51;18.50;99.90
53711;DHT22;39605;52.704;6.752;2022-09-09T16:55:16;18.50;99.90
53711;DHT22;39605;52.704;6.752;2022-09-09T16:57:42;18.40;99.90
53711;DHT22;39605;52.704;6.752;2022-09-09T17:00:08;18.30;99.90
53711;DHT22;39605;52.704;6.752;2022-09-09T17:02:34;18.30;99.90
53711;DHT22;39605;52.704;6.752;2022-09-09T17:05:00;18.30;99.90
53711;DHT22;39605;52.704;6.752;2022-09-09T17:07:25;18.30;99.90
53711;DHT22;39605;52.704;6.752;2022-09-09T17:09:51;18.20;99.90
53711;DHT22;39605;52.704;6.752;2022-09-09T17:12:19;18.20;99.90
53711;DHT22;39605;52.704;6.752;2022-09-09T17:14:46;18.20;99.90
53711;DHT22;39605;52.704;6.752;2022-09-09T17:17:12;18.20;99.90
53711;DHT22;39605;52.704;6.752;2022-09-09T17:19:38;18.10;99.90
53711;DHT22;39605;52.704;6.752;2022-09-09T17:22:04;18.10;99.90
53711;DHT22;39605;52.704;6.752;2022-09-09T17:24:29;18.10;99.90
53711;DHT22;39605;52.704;6.752;2022-09-09T17:26:55;18.10;99.90
53711;DHT22;39605;52.704;6.752;2022-09-09T17:29:21;18.10;99.90
53711;DHT22;39605;52.704;6.752;2022-09-09T17:31:47;18.10;99.90
53711;DHT22;39605;52.704;6.752;2022-09-09T17:34:13;18.00;99.90
53711;DHT22;39605;52.704;6.752;2022-09-09T17:36:39;18.10;99.90
53711;DHT22;39605;52.704;6.752;2022-09-09T17:39:05;18.10;99.90
53711;DHT22;39605;52.704;6.752;2022-09-09T17:41:34;18.00;99.90
53711;DHT22;39605;52.704;6.752;2022-09-09T17:44:02;18.10;99.90
53711;DHT22;39605;52.704;6.752;2022-09-09T17:46:39;18.00;99.90
53711;DHT22;39605;52.704;6.752;2022-09-09T17:49:16;18.00;99.90
53711;DHT22;39605;52.704;6.752;2022-09-09T17:51:44;18.00;99.90
53711;DHT22;39605;52.704;6.752;2022-09-09T17:54:13;18.00;99.90
53711;DHT22;39605;52.704;6.752;2022-09-09T17:56:40;17.90;99.90
53711;DHT22;39605;52.704;6.752;2022-09-09T17:59:07;17.90;99.90
53711;DHT22;39605;52.704;6.752;2022-09-09T18:01:37;17.90;99.90
53711;DHT22;39605;52.704;6.752;2022-09-09T18:04:06;17.90;99.90
53711;DHT22;39605;52.704;6.752;2022-09-09T18:06:38;17.90;99.90
53711;DHT22;39605;52.704;6.752;2022-09-09T18:09:06;17.90;99.90
53711;DHT22;39605;52.704;6.752;2022-09-09T18:11:37;17.90;99.90
53711;DHT22;39605;52.704;6.752;2022-09-09T18:14:07;17.90;99.90
53711;DHT22;39605;52.704;6.752;2022-09-09T18:16:35;17.80;99.90
53711;DHT22;39605;52.704;6.752;2022-09-09T18:19:03;17.80;99.90
53711;DHT22;39605;52.704;6.752;2022-09-09T18:21:34;17.80;99.90
53711;DHT22;39605;52.704;6.752;2022-09-09T18:24:01;17.80;99.90
53711;DHT22;39605;52.704;6.752;2022-09-09T18:26:30;17.80;99.90
53711;DHT22;39605;52.704;6.752;2022-09-09T18:29:00;17.80;99.90